EGGPEGKB

Guest
Details From EGGP - Liverpool
To EGKB - Biggin Hill
Flight Number -
Tags generated
Created
Modified
Stats Distance 160 nm / 297 km
Max Altitude 13,200 ft / 4,023 m
Waypoints 3
Social Downloads 0
Likes 0
Share VATSIM

Download

Looking for another format? Having issues loading an existing format? Contact us
Advertisement - Login to hide

Notes

Basic altitude profile: - Ascent Rate: 2500ft/min - Ascent Speed: 250kts - Cruise Altitude: 35000ft - Cruise Speed: 420kts - Descent Rate: 1500ft/min - Descent Speed: 250kts Options: - Use NATs: yes - Use PACOTS: yes - Use low airways: yes - Use high airways: yes

Route

EGGP DTY EGKB

ID Type Via Altitude Latitude Longitude Leg Dist Tot Dist Heading (true) Name
O EGGP APT - 0 ft / 0 m 53.33363˚ -2.84977˚ - 0 nm - Liverpool
DTY VOR - 13,200 ft / 4,023 m 52.18028˚ -1.11389˚ 93 nm 93 nm 137° / 138° DAVENTRY VOR-DME
O EGKB APT - 0 ft / 0 m 51.32671˚ 0.03288˚ 66 nm 160 nm 140° / 141° Biggin Hill

Altitude Profile

Advertisement - Login to hide

EGGP

Details ICAO EGGP (LPL)
Name Liverpool
Region United Kingdom
Timezone Europe/London (UTC+0.0)
Stats Elevation 80 ft / 24 m (AMSL)
Location 53.333632° -2.849769°
Runways 1
Magnetic Variation 1.674° W

METAR

EGGP 161820Z 30006KT 9999 SCT031 05/04 Q1021

Decode

TAF

TAF TAF EGGP 161704Z 1618/1718 32010KT 9999 FEW012 BECMG 1618/1620 VRB03KT PROB40 1618/1622 5000 BR BECMG 1622/1701 2000 BR PROB40 TEMPO 1622/1704 0300 FG FZFG VV/// BECMG 1703/1706 9999 NSW BECMG 1709/1711 BKN012 TEMPO 1709/1716 6000 -RADZ BKN008 BECMG 1712/1715 26015KT PROB30 TEMPO 1712/1716 4000 RADZ BKN004 BECMG 1716/1718 32018KT FEW020

Decode

Departure Runways

ID Width Length Bearing (true) Bearing (mag) Surface Threshold Offset Overrun Length
09 151 ft / 46 m 7,466 ft / 2,276 m 85.59° 87.26° Asphalt 180 ft / 55 m 0 ft / 0 m
27 151 ft / 46 m 7,466 ft / 2,276 m 265.61° 267.28° Asphalt 0 ft / 0 m 0 ft / 0 m

EGKB

Details ICAO EGKB (BQH)
Name Biggin Hill
Region United Kingdom
Timezone Europe/London (UTC+0.0)
Stats Elevation 598 ft / 182 m (AMSL)
Location 51.326710° 0.032876°
Runways 2
Magnetic Variation 0.373° W

METAR

EGKB 161820Z 26005KT 240V300 9999 SCT024 03/03 Q1019

Decode

TAF

Not found

Destination Runways

ID Width Length Bearing (true) Bearing (mag) Surface Threshold Offset Overrun Length
03 148 ft / 45 m 5,915 ft / 1,803 m 25.53° 25.90° Asphalt 804 ft / 245 m 0 ft / 0 m
11 59 ft / 18 m 2,579 ft / 786 m 105.47° 105.84° Asphalt 0 ft / 0 m 0 ft / 0 m
21 148 ft / 45 m 5,915 ft / 1,803 m 205.53° 205.90° Asphalt 0 ft / 0 m 0 ft / 0 m
29 59 ft / 18 m 2,579 ft / 786 m 285.48° 285.85° Asphalt 0 ft / 0 m 0 ft / 0 m

Approach Navaids

Runway Type Ident Frequency Range Bearing (true) Bearing (mag) Slope Elevation
21 Localiser IBGH 109.35 MHz 18 nm / 33 km 205.65° 206.02° - 598 ft / 182 m (AMSL)
21 Glidescope IBGH 109.35 MHz 10 nm / 19 km 205.53° 205.90° 3.00° 598 ft / 182 m (AMSL)
21 DME IBGH 109.35 MHz 18 nm / 33 km - - - 570 ft / 174 m (AMSL)